Terminal Aerodrome Forecast
Issued by NWS Omaha/Valley, NE

Home | Current Version | Previous Version | Text Only | Print | Product List | Glossary On
Versions: 1 2 3 4 5 6 7 8 9 10 11 12 13 14 15 16 17 18 19 20 21 22 23 24 25
000
FTUS43 KOAX 140450 AAA
TAFOFK
TAF AMD
KOFK 140450Z 1405/1424 08006KT P6SM BKN025
     FM140700 08005KT P6SM BKN015
     FM140900 08005KT P6SM VCSH BKN008
     FM141300 07005KT P6SM OVC003
      TEMPO 1413/1417 3/4SM -SHRA
     FM141700 VRB03KT P6SM OVC008 PROB30 1417/1419 2SM -SHRA OVC003
     FM141900 29004KT P6SM OVC015 PROB30 1419/1421 4SM -SHRA OVC007
     FM142100 31008KT P6SM OVC015 PROB30 1421/1423 4SM -SHRA OVC007
     FM142300 32015KT P6SM BKN015 PROB30 1423/1424 4SM -SHRA OVC007=

USA.gov is the U.S. government's official web portal to all federal, state and local government web resources and services.